Time;durP1;ratioP1;P1;durP2;ratioP2;P2;SDS_P1;SDS_P2;PMS_P1;PMS_P2;Temp;Humidity;BMP_temperature;BMP_pressure;BME280_temperature;BME280_humidity;BME280_pressure;Samples;Min_cycle;Max_cycle;Signal;HPM_P1;HPM_P2
2023/02/21 02:15:34;;;;;;;11.57;5.57;;;7.80;86.10;;;;;;5043109;28;20414;-61
2023/02/21 02:18:32;;;;;;;15.35;6.35;;;7.80;86.00;;;;;;5041514;28;20037;-62
2023/02/21 02:21:42;;;;;;;14.25;6.07;;;7.80;86.10;;;;;;5063157;28;20058;-61
2023/02/21 02:24:39;;;;;;;12.75;6.40;;;7.80;86.10;;;;;;4955905;28;20174;-61
2023/02/21 02:27:40;;;;;;;10.85;5.10;;;7.80;86.10;;;;;;4964986;28;20057;-62
2023/02/21 02:30:34;;;;;;;11.40;5.32;;;7.80;86.10;;;;;;5042507;28;20048;-60
2023/02/21 02:33:37;;;;;;;11.23;5.32;;;7.80;86.00;;;;;;5036858;28;20044;-62
2023/02/21 02:36:09;;;;;;;12.18;6.35;;;7.80;86.10;;;;;;5037264;28;20051;-62
2023/02/21 02:38:44;;;;;;;12.40;5.70;;;7.80;86.10;;;;;;5064988;28;20060;-62
2023/02/21 02:41:16;;;;;;;11.43;5.85;;;7.80;86.10;;;;;;5043009;28;20151;-61
2023/02/21 02:43:51;;;;;;;14.55;6.35;;;7.80;86.10;;;;;;5043021;28;20060;-62
2023/02/21 02:46:23;;;;;;;11.77;5.68;;;7.80;86.00;;;;;;5064302;28;20044;-62
2023/02/21 02:48:55;;;;;;;11.98;5.68;;;7.80;86.00;;;;;;5060175;28;20044;-62
2023/02/21 02:51:26;;;;;;;11.85;5.90;;;7.80;86.10;;;;;;5055749;28;20052;-62
2023/02/21 02:53:54;;;;;;;12.02;5.82;;;7.80;86.00;;;;;;5035623;28;20483;-62
2023/02/21 02:59:18;;;;;;;14.45;5.30;;;7.80;86.10;;;;;;5729009;23;20483;-68
2023/02/21 03:02:18;;;;;;;10.68;5.43;;;7.80;86.00;;;;;;4954822;28;20055;-68
2023/02/21 03:04:58;;;;;;;10.00;4.60;;;7.90;86.10;;;;;;4941494;28;20055;-68
2023/02/21 03:07:34;;;;;;;11.40;5.45;;;7.90;86.00;;;;;;4949323;28;20043;-69
2023/02/21 03:10:12;;;;;;;14.07;4.82;;;7.90;86.00;;;;;;4944905;28;20050;-69
2023/02/21 03:12:47;;;;;;;9.15;4.57;;;7.80;86.00;;;;;;4964921;28;20051;-70
2023/02/21 03:15:18;;;;;;;11.65;4.88;;;7.90;86.00;;;;;;4967674;28;20405;-69
2023/02/21 03:17:51;;;;;;;9.93;4.97;;;7.90;86.00;;;;;;4958945;28;20051;-69
2023/02/21 03:20:20;;;;;;;9.80;4.70;;;7.80;86.00;;;;;;4949494;28;20039;-68
2023/02/21 03:22:50;;;;;;;10.73;4.32;;;7.80;86.00;;;;;;4960116;28;20134;-69
2023/02/21 03:25:18;;;;;;;9.30;4.13;;;7.80;86.00;;;;;;4949715;28;20099;-69
2023/02/21 03:27:48;;;;;;;8.93;4.40;;;7.80;85.90;;;;;;4963054;28;20050;-68
2023/02/21 03:30:22;;;;;;;10.38;4.65;;;7.80;85.90;;;;;;4961437;28;20057;-69
2023/02/21 03:32:52;;;;;;;8.20;4.13;;;7.80;85.90;;;;;;4961992;28;20054;-72
2023/02/21 03:35:22;;;;;;;10.13;4.65;;;7.80;85.90;;;;;;4949840;28;20111;-66
2023/02/21 03:37:52;;;;;;;9.82;4.50;;;7.90;85.90;;;;;;4949391;28;20147;-69
2023/02/21 03:40:25;;;;;;;8.75;4.15;;;7.80;86.00;;;;;;4960278;28;20102;-67
2023/02/21 03:42:54;;;;;;;8.43;4.03;;;7.90;86.00;;;;;;4966129;28;20047;-68
2023/02/21 03:45:22;;;;;;;6.97;3.60;;;7.80;86.00;;;;;;4943003;28;20671;-68
2023/02/21 03:48:04;;;;;;;7.43;3.85;;;7.80;86.00;;;;;;4946558;28;20087;-69
2023/02/21 03:50:33;;;;;;;6.78;3.38;;;7.80;86.00;;;;;;4950006;28;20073;-69
2023/02/21 03:53:03;;;;;;;9.63;4.45;;;7.80;85.90;;;;;;4965636;28;20047;-69
2023/02/21 03:55:32;;;;;;;11.60;4.38;;;7.80;85.90;;;;;;4949789;28;20047;-69
2023/02/21 03:58:02;;;;;;;9.60;3.20;;;7.80;86.00;;;;;;4950742;28;20047;-69
2023/02/21 04:00:32;;;;;;;7.88;4.05;;;7.80;86.00;;;;;;4965671;28;20483;-68
2023/02/21 04:02:59;;;;;;;9.63;3.78;;;7.80;86.00;;;;;;4965618;28;20061;-69
2023/02/21 04:05:33;;;;;;;10.20;4.07;;;7.80;86.00;;;;;;4962494;28;20105;-69
2023/02/21 04:08:00;;;;;;;8.93;4.03;;;7.80;86.00;;;;;;4962141;28;20060;-69
2023/02/21 04:10:29;;;;;;;7.60;3.97;;;7.80;86.10;;;;;;4952519;28;20061;-68
2023/02/21 04:12:56;;;;;;;9.80;4.53;;;7.80;86.10;;;;;;4978864;28;20057;-68
2023/02/21 04:15:23;;;;;;;8.70;4.28;;;7.80;86.10;;;;;;4969856;28;20061;-67
2023/02/21 04:17:50;;;;;;;9.07;4.00;;;7.70;86.10;;;;;;4984597;28;20053;-68
2023/02/21 04:20:18;;;;;;;10.32;4.30;;;7.70;86.20;;;;;;4984309;28;20500;-68
2023/02/21 04:22:49;;;;;;;11.75;4.60;;;7.70;86.20;;;;;;4962084;28;20838;-69
2023/02/21 04:25:17;;;;;;;10.75;4.57;;;7.80;86.20;;;;;;4952127;28;20046;-69
2023/02/21 04:27:55;;;;;;;9.30;4.60;;;7.70;86.20;;;;;;4962173;28;20043;-68
2023/02/21 04:30:23;;;;;;;8.38;4.07;;;7.70;86.30;;;;;;4962628;28;20061;-69
2023/02/21 04:32:50;;;;;;;11.45;5.25;;;7.70;86.30;;;;;;4945523;28;20070;-69
2023/02/21 04:35:17;;;;;;;11.45;4.88;;;7.70;86.30;;;;;;4964921;28;20062;-67
2023/02/21 04:37:45;;;;;;;11.63;5.32;;;7.70;86.30;;;;;;4963344;28;20424;-69
2023/02/21 04:40:13;;;;;;;9.82;4.63;;;7.70;86.30;;;;;;4991985;28;20054;-68
2023/02/21 04:42:40;;;;;;;10.90;4.25;;;7.70;86.30;;;;;;4991886;28;20485;-68
2023/02/21 04:45:09;;;;;;;9.02;4.30;;;7.60;86.30;;;;;;4978728;28;20046;-67
2023/02/21 04:47:36;;;;;;;9.13;4.68;;;7.60;86.40;;;;;;4978861;28;20054;-71
2023/02/21 04:50:03;;;;;;;9.55;4.43;;;7.60;86.50;;;;;;4982250;28;20050;-69
2023/02/21 04:52:30;;;;;;;9.30;4.22;;;7.60;86.50;;;;;;4990355;28;20144;-68
2023/02/21 04:54:57;;;;;;;10.10;4.50;;;7.60;86.50;;;;;;4982586;28;20605;-68
2023/02/21 04:57:24;;;;;;;9.73;4.65;;;7.60;86.60;;;;;;4981947;28;20051;-68
2023/02/21 04:59:57;;;;;;;9.82;4.82;;;7.60;86.60;;;;;;4977200;28;20054;-69
2023/02/21 05:02:26;;;;;;;9.60;4.43;;;7.60;86.50;;;;;;4987949;28;20045;-68
2023/02/21 05:04:53;;;;;;;11.30;4.53;;;7.60;86.60;;;;;;5007559;28;20139;-68
2023/02/21 05:07:20;;;;;;;10.10;4.50;;;7.50;86.70;;;;;;5007030;28;20061;-68
2023/02/21 05:09:47;;;;;;;9.23;4.47;;;7.50;86.70;;;;;;5005622;28;20050;-68
2023/02/21 05:12:14;;;;;;;9.82;4.40;;;7.50;86.80;;;;;;5002101;28;20042;-68
2023/02/21 05:14:41;;;;;;;9.23;4.40;;;7.50;86.80;;;;;;5008687;28;20049;-67
2023/02/21 05:17:09;;;;;;;8.75;4.25;;;7.50;86.90;;;;;;5007923;28;20068;-69
2023/02/21 05:19:38;;;;;;;11.02;4.93;;;7.50;87.00;;;;;;5003445;28;20083;-69
2023/02/21 05:22:06;;;;;;;7.72;4.20;;;7.50;87.00;;;;;;5006091;28;20048;-70
2023/02/21 05:24:32;;;;;;;9.15;4.50;;;7.50;87.00;;;;;;5007358;28;20042;-68
2023/02/21 05:27:00;;;;;;;10.35;5.18;;;7.50;86.90;;;;;;5007252;28;20101;-67
2023/02/21 05:29:28;;;;;;;10.02;4.47;;;7.50;86.90;;;;;;5006786;28;20041;-68
2023/02/21 05:31:55;;;;;;;9.82;4.78;;;7.50;86.90;;;;;;5006119;28;20057;-68
2023/02/21 05:34:22;;;;;;;8.30;4.28;;;7.40;87.00;;;;;;5006201;28;20110;-69
2023/02/21 05:36:50;;;;;;;9.85;4.55;;;7.50;87.00;;;;;;5006248;28;20046;-68
2023/02/21 05:39:17;;;;;;;12.23;4.47;;;7.50;87.00;;;;;;5009137;28;20147;-70
2023/02/21 05:41:48;;;;;;;9.43;4.25;;;7.40;87.00;;;;;;4999889;28;20053;-70
2023/02/21 05:44:15;;;;;;;8.45;4.32;;;7.50;87.00;;;;;;5007375;28;20052;-68
2023/02/21 05:46:43;;;;;;;7.75;3.72;;;7.40;87.10;;;;;;5007489;28;20504;-68
2023/02/21 05:49:09;;;;;;;7.80;3.70;;;7.40;87.10;;;;;;5009877;28;20682;-68
2023/02/21 05:51:38;;;;;;;6.80;3.65;;;7.40;87.10;;;;;;5001820;28;20046;-68
2023/02/21 05:54:08;;;;;;;5.65;3.15;;;7.40;87.10;;;;;;5006801;28;20051;-68
2023/02/21 05:56:39;;;;;;;6.47;3.08;;;7.40;87.20;;;;;;5005552;28;20046;-69
2023/02/21 05:59:06;;;;;;;10.85;3.55;;;7.40;87.20;;;;;;5001270;28;20054;-68
2023/02/21 06:01:33;;;;;;;7.47;3.95;;;7.40;87.30;;;;;;4997352;28;20073;-68
2023/02/21 06:03:59;;;;;;;9.30;4.00;;;7.40;87.20;;;;;;5004603;28;20050;-69
2023/02/21 06:06:27;;;;;;;8.82;3.95;;;7.30;87.20;;;;;;5002749;28;20056;-69
2023/02/21 06:08:54;;;;;;;10.48;4.30;;;7.40;87.20;;;;;;5005242;28;20100;-68
2023/02/21 06:11:26;;;;;;;9.23;3.97;;;7.30;87.30;;;;;;5005235;28;20049;-68
2023/02/21 06:13:55;;;;;;;9.60;4.10;;;7.30;87.30;;;;;;5008152;28;20064;-67
2023/02/21 06:16:23;;;;;;;8.63;4.22;;;7.30;87.30;;;;;;5002259;28;20104;-69
2023/02/21 06:18:51;;;;;;;13.82;5.05;;;7.20;87.40;;;;;;5008619;28;20057;-68
2023/02/21 06:21:18;;;;;;;9.93;5.47;;;7.30;87.40;;;;;;5007435;28;20132;-67
2023/02/21 06:23:46;;;;;;;11.60;5.35;;;7.30;87.30;;;;;;5005299;28;20048;-68
2023/02/21 06:26:13;;;;;;;9.95;4.70;;;7.30;87.30;;;;;;5004392;28;20056;-68
2023/02/21 06:28:42;;;;;;;10.98;5.78;;;7.30;87.40;;;;;;5004202;28;20053;-69
2023/02/21 06:31:09;;;;;;;12.32;5.57;;;7.20;87.40;;;;;;5002747;28;20460;-68
2023/02/21 06:33:35;;;;;;;12.55;4.95;;;7.20;87.50;;;;;;5005098;28;20064;-68
2023/02/21 06:36:06;;;;;;;13.70;5.32;;;7.30;87.50;;;;;;5006118;28;20065;-68
2023/02/21 06:38:33;;;;;;;13.93;5.85;;;7.20;87.60;;;;;;5006130;28;20064;-68
2023/02/21 06:41:00;;;;;;;10.48;5.20;;;7.30;87.60;;;;;;5004930;28;20050;-68
2023/02/21 06:43:27;;;;;;;11.40;5.13;;;7.30;87.70;;;;;;5005814;28;20062;-68
2023/02/21 06:45:55;;;;;;;11.43;5.70;;;7.30;87.70;;;;;;5003151;28;20054;-68
2023/02/21 06:48:26;;;;;;;12.55;5.78;;;7.30;87.70;;;;;;5005573;28;20046;-69
2023/02/21 06:50:52;;;;;;;10.77;6.20;;;7.30;87.60;;;;;;4997563;28;20054;-69
2023/02/21 06:53:19;;;;;;;11.63;6.80;;;7.30;87.60;;;;;;5007191;28;20045;-69
2023/02/21 06:55:46;;;;;;;11.68;6.05;;;7.30;87.60;;;;;;5003551;28;21902;-68
2023/02/21 06:58:13;;;;;;;12.25;6.30;;;7.30;87.50;;;;;;5006765;28;20054;-68
2023/02/21 07:00:40;;;;;;;12.43;5.82;;;7.30;87.50;;;;;;4997121;28;20118;-68
2023/02/21 07:03:08;;;;;;;11.00;5.35;;;7.30;87.60;;;;;;5002488;28;20044;-68
2023/02/21 07:05:37;;;;;;;15.57;5.90;;;7.40;87.70;;;;;;5003435;28;20577;-68
2023/02/21 07:08:04;;;;;;;12.75;5.97;;;7.40;87.70;;;;;;5003639;28;20045;-68
2023/02/21 07:10:31;;;;;;;14.73;6.15;;;7.40;87.70;;;;;;5003200;28;20048;-67
2023/02/21 07:12:58;;;;;;;12.00;5.80;;;7.40;87.30;;;;;;5003945;28;20046;-69
2023/02/21 07:15:25;;;;;;;12.55;6.15;;;7.40;87.50;;;;;;5004675;28;20419;-68
2023/02/21 07:17:52;;;;;;;10.27;5.40;;;7.40;87.50;;;;;;5006705;28;20086;-67
2023/02/21 07:20:21;;;;;;;10.07;5.53;;;7.50;87.50;;;;;;5003843;28;20050;-69
2023/02/21 07:22:47;;;;;;;10.25;5.47;;;7.50;87.50;;;;;;5006053;28;20823;-68
2023/02/21 07:25:16;;;;;;;10.00;5.63;;;7.50;87.30;;;;;;5005188;28;20049;-68
2023/02/21 07:27:43;;;;;;;12.23;6.03;;;7.50;87.30;;;;;;5004343;28;20050;-69
2023/02/21 07:30:11;;;;;;;12.38;6.00;;;7.60;87.20;;;;;;5007493;28;20038;-68
2023/02/21 07:32:38;;;;;;;15.65;6.10;;;7.60;87.20;;;;;;5006200;28;20061;-68
2023/02/21 07:35:06;;;;;;;13.98;5.20;;;7.60;87.10;;;;;;5006369;28;20069;-68
2023/02/21 07:37:34;;;;;;;10.30;5.15;;;7.60;87.20;;;;;;5000746;28;20058;-68
2023/02/21 07:40:01;;;;;;;11.18;5.32;;;7.70;87.20;;;;;;4998834;28;20097;-68
2023/02/21 07:42:28;;;;;;;11.07;5.75;;;7.70;87.10;;;;;;5007520;28;20069;-69
2023/02/21 07:44:56;;;;;;;13.38;5.60;;;7.70;87.00;;;;;;5006150;28;20412;-68
2023/02/21 07:47:24;;;;;;;13.35;5.60;;;7.70;86.90;;;;;;4996606;28;20161;-68
2023/02/21 07:49:52;;;;;;;11.02;5.85;;;7.80;86.90;;;;;;5004292;28;20046;-69
2023/02/21 07:52:20;;;;;;;11.30;5.57;;;7.80;86.90;;;;;;5005493;28;20050;-68
2023/02/21 07:54:48;;;;;;;13.43;5.88;;;7.80;86.90;;;;;;5002865;28;20053;-68
2023/02/21 07:57:15;;;;;;;11.23;5.10;;;7.80;86.90;;;;;;5007327;28;20420;-67
2023/02/21 07:59:42;;;;;;;12.27;5.95;;;7.90;86.90;;;;;;5002917;28;20057;-67
2023/02/21 08:02:12;;;;;;;10.95;5.38;;;7.90;86.80;;;;;;4999623;28;20133;-68
2023/02/21 08:04:39;;;;;;;12.68;5.95;;;7.90;86.80;;;;;;5005507;28;20058;-68
2023/02/21 08:07:07;;;;;;;12.52;6.03;;;8.00;86.70;;;;;;5009763;28;20416;-69
2023/02/21 08:09:34;;;;;;;10.63;5.93;;;8.00;86.60;;;;;;5002757;28;20500;-67
2023/02/21 08:12:02;;;;;;;12.68;6.00;;;8.10;86.60;;;;;;5004420;28;20042;-67
2023/02/21 08:14:29;;;;;;;10.57;5.82;;;8.10;86.50;;;;;;5009883;28;20041;-68
2023/02/21 08:16:56;;;;;;;14.13;6.65;;;8.10;86.50;;;;;;5010432;28;20041;-69
2023/02/21 08:19:23;;;;;;;14.65;6.95;;;8.20;86.50;;;;;;5008455;28;20057;-68
2023/02/21 08:21:50;;;;;;;10.13;6.00;;;8.20;86.40;;;;;;4999554;28;20551;-67
2023/02/21 08:24:18;;;;;;;13.02;7.00;;;8.20;86.30;;;;;;5009154;28;20049;-68
2023/02/21 08:26:46;;;;;;;11.95;6.53;;;8.20;86.30;;;;;;5006034;28;20060;-69
2023/02/21 08:29:16;;;;;;;13.80;6.97;;;8.30;86.30;;;;;;5010005;28;20046;-67
2023/02/21 08:31:43;;;;;;;;;;;8.40;86.20;;;;;;5001815;28;20142;-67
2023/02/21 08:34:12;;;;;;;10.80;5.85;;;8.40;86.10;;;;;;5006434;28;20001;-67
2023/02/21 08:36:41;;;;;;;13.32;6.80;;;8.40;85.90;;;;;;5008221;28;20057;-68
2023/02/21 08:39:09;;;;;;;11.27;6.60;;;8.40;85.80;;;;;;5003555;28;20057;-69
2023/02/21 08:41:37;;;;;;;12.48;7.15;;;8.50;85.90;;;;;;5009632;28;20048;-68
2023/02/21 08:44:05;;;;;;;13.00;7.45;;;8.50;85.90;;;;;;5007108;28;20619;-68
2023/02/21 08:46:33;;;;;;;13.50;6.93;;;8.50;85.70;;;;;;5005205;28;20055;-68
2023/02/21 08:49:01;;;;;;;11.73;6.78;;;8.60;85.60;;;;;;5002216;28;20054;-69
2023/02/21 08:51:29;;;;;;;10.00;6.00;;;8.70;85.50;;;;;;5006106;28;20046;-67
2023/02/21 08:53:56;;;;;;;13.38;7.43;;;8.70;85.30;;;;;;5009167;28;20072;-68
2023/02/21 08:56:24;;;;;;;13.57;7.18;;;8.80;85.30;;;;;;5003495;28;20066;-65
2023/02/21 08:58:52;;;;;;;11.18;7.05;;;8.80;85.10;;;;;;5009822;28;20050;-67
2023/02/21 09:01:20;;;;;;;13.38;7.18;;;8.90;85.10;;;;;;5000814;28;20081;-69
2023/02/21 09:03:48;;;;;;;13.25;7.00;;;8.90;85.10;;;;;;5001503;28;20056;-68
2023/02/21 09:06:15;;;;;;;12.75;7.30;;;8.90;84.90;;;;;;5007114;28;20121;-67
2023/02/21 09:08:42;;;;;;;13.52;7.60;;;9.00;84.90;;;;;;5004761;28;20049;-67
2023/02/21 09:11:09;;;;;;;12.00;7.18;;;9.00;84.80;;;;;;5004411;28;20053;-68
2023/02/21 09:13:36;;;;;;;15.70;7.18;;;9.10;84.60;;;;;;5003200;28;20105;-69
2023/02/21 09:16:04;;;;;;;15.25;7.55;;;9.10;84.50;;;;;;5005096;28;20506;-68
2023/02/21 09:18:31;;;;;;;12.75;7.00;;;9.10;84.40;;;;;;5000466;28;20046;-69
2023/02/21 09:21:00;;;;;;;11.43;6.90;;;9.20;84.20;;;;;;5003704;28;20056;-67
2023/02/21 09:23:30;;;;;;;12.82;7.57;;;9.20;84.00;;;;;;5002465;28;20046;-67
2023/02/21 09:25:58;;;;;;;13.48;7.28;;;9.20;83.90;;;;;;5006060;28;20050;-67
2023/02/21 09:28:24;;;;;;;12.30;7.20;;;9.20;84.00;;;;;;5004497;28;20062;-68
2023/02/21 09:30:51;;;;;;;13.07;6.82;;;9.20;83.90;;;;;;5005985;28;20169;-68
2023/02/21 09:33:18;;;;;;;13.65;7.18;;;9.30;83.90;;;;;;5004427;28;20050;-67
2023/02/21 09:35:45;;;;;;;14.13;7.32;;;9.30;83.70;;;;;;5006658;28;20046;-67
2023/02/21 09:38:14;;;;;;;14.55;7.10;;;9.30;83.70;;;;;;5006644;28;21047;-69
2023/02/21 09:40:44;;;;;;;14.40;7.65;;;9.30;83.70;;;;;;5006551;28;20042;-69
2023/02/21 09:43:13;;;;;;;;;;;9.40;83.60;;;;;;5007533;28;20046;-69
2023/02/21 09:45:42;;;;;;;13.63;6.47;;;9.40;83.50;;;;;;5003915;28;19921;-68
2023/02/21 09:48:14;;;;;;;11.52;7.05;;;9.40;83.40;;;;;;5005674;28;20629;-69
2023/02/21 09:50:46;;;;;;;13.27;7.05;;;9.50;83.50;;;;;;5004598;28;20416;-68
2023/02/21 09:53:18;;;;;;;13.13;7.53;;;9.50;83.30;;;;;;5006653;28;20042;-68
2023/02/21 09:55:48;;;;;;;16.42;7.30;;;9.50;83.30;;;;;;5002619;28;20068;-68
2023/02/21 09:58:18;;;;;;;15.15;7.40;;;9.60;83.20;;;;;;5006359;28;20057;-68
2023/02/21 10:00:45;;;;;;;10.80;6.68;;;9.60;83.10;;;;;;5000066;28;20484;-69
2023/02/21 10:03:40;;;;;;;12.35;6.55;;;9.60;83.20;;;;;;5004688;28;20424;-67
2023/02/21 10:06:16;;;;;;;12.60;6.55;;;9.60;83.10;;;;;;4998944;28;20519;-68
2023/02/21 10:08:51;;;;;;;13.32;6.97;;;9.60;83.00;;;;;;5004241;28;20057;-61
2023/02/21 10:11:32;;;;;;;12.73;7.18;;;9.70;83.00;;;;;;5002693;28;20149;-62
2023/02/21 10:14:12;;;;;;;13.88;7.55;;;9.70;82.80;;;;;;5002754;28;20049;-62
2023/02/21 10:16:43;;;;;;;12.55;7.22;;;9.70;82.60;;;;;;5005502;28;20042;-63
2023/02/21 10:19:18;;;;;;;13.57;7.22;;;9.70;82.70;;;;;;5002117;28;20050;-63
2023/02/21 10:21:47;;;;;;;12.63;7.25;;;9.80;82.80;;;;;;5003413;28;20046;-62
2023/02/21 10:24:18;;;;;;;16.08;7.75;;;9.80;82.70;;;;;;5002882;28;20520;-62
2023/02/21 10:26:52;;;;;;;12.57;7.15;;;9.80;82.80;;;;;;5004967;28;20050;-61
2023/02/21 10:29:23;;;;;;;12.02;6.63;;;9.80;82.70;;;;;;5003994;28;20048;-62
2023/02/21 10:31:55;;;;;;;12.20;6.90;;;9.80;82.30;;;;;;5007476;28;20045;-62
2023/02/21 10:34:25;;;;;;;14.15;7.68;;;9.80;82.40;;;;;;5005894;28;20054;-62
2023/02/21 10:36:53;;;;;;;11.30;6.80;;;9.90;82.30;;;;;;5007837;28;20049;-63
2023/02/21 10:39:30;;;;;;;13.98;7.45;;;9.90;82.30;;;;;;5006347;28;20142;-62
2023/02/21 10:41:58;;;;;;;13.82;7.38;;;9.90;82.10;;;;;;5007433;28;20496;-62
2023/02/21 10:44:29;;;;;;;12.43;7.13;;;9.90;82.40;;;;;;5007039;28;20053;-68
2023/02/21 10:47:01;;;;;;;13.75;8.13;;;9.90;82.40;;;;;;5003778;28;20048;-69
2023/02/21 10:49:32;;;;;;;13.65;7.15;;;9.90;82.20;;;;;;5007232;28;20050;-68
2023/02/21 10:52:09;;;;;;;13.15;7.22;;;9.90;82.10;;;;;;4998692;28;20045;-68
2023/02/21 10:54:38;;;;;;;14.90;7.30;;;9.90;82.20;;;;;;5005399;28;20392;-68
2023/02/21 10:57:08;;;;;;;16.95;7.90;;;9.90;82.30;;;;;;5003036;28;20050;-68
2023/02/21 10:59:37;;;;;;;12.70;7.68;;;10.00;82.40;;;;;;5006285;28;20068;-69
2023/02/21 11:02:30;;;;;;;13.75;7.63;;;10.00;82.40;;;;;;4997406;28;20456;-69
2023/02/21 11:05:08;;;;;;;12.68;6.72;;;10.00;82.30;;;;;;5005722;28;20050;-63
2023/02/21 11:07:36;;;;;;;11.02;6.53;;;10.00;82.20;;;;;;5006840;28;20424;-63
2023/02/21 11:10:27;;;;;;;12.48;6.93;;;10.10;82.20;;;;;;5006693;28;20057;-63
2023/02/21 11:13:03;;;;;;;12.40;6.82;;;10.10;82.20;;;;;;5002627;28;20483;-63
2023/02/21 11:15:30;;;;;;;12.57;6.80;;;10.10;82.10;;;;;;5003107;28;20053;-62
2023/02/21 11:18:11;;;;;;;14.25;7.18;;;10.10;82.10;;;;;;5006664;28;20049;-62
2023/02/21 11:20:38;;;;;;;13.27;7.03;;;10.10;82.20;;;;;;5003401;28;20047;-62
2023/02/21 11:23:17;;;;;;;13.38;7.65;;;10.10;82.20;;;;;;5005371;28;20061;-62
2023/02/21 11:25:46;;;;;;;12.40;6.47;;;10.10;82.10;;;;;;5006325;28;20057;-61
2023/02/21 11:28:20;;;;;;;11.35;6.88;;;10.20;82.10;;;;;;5006535;28;20042;-63
2023/02/21 11:30:51;;;;;;;15.88;7.25;;;10.20;82.10;;;;;;5000874;28;20400;-60
2023/02/21 11:33:21;;;;;;;14.55;7.38;;;10.30;82.10;;;;;;5006125;28;20076;-62
2023/02/21 11:35:50;;;;;;;14.10;7.40;;;10.30;82.10;;;;;;4998932;28;20136;-63
2023/02/21 11:38:34;;;;;;;12.52;6.18;;;10.20;82.00;;;;;;4996813;28;20052;-62
2023/02/21 11:41:15;;;;;;;16.05;7.38;;;10.30;82.00;;;;;;5009442;28;20045;-62
2023/02/21 11:43:46;;;;;;;11.93;6.65;;;10.40;81.90;;;;;;5008457;28;20463;-62
2023/02/21 11:46:19;;;;;;;14.27;7.20;;;10.40;82.10;;;;;;5010620;28;20514;-62
2023/02/21 11:48:56;;;;;;;13.98;7.13;;;10.40;82.00;;;;;;5005183;28;20050;-62
2023/02/21 11:51:32;;;;;;;14.52;7.28;;;10.50;81.90;;;;;;5010807;28;20068;-62
2023/02/21 11:53:59;;;;;;;14.63;6.82;;;10.50;81.80;;;;;;5010379;28;20479;-61
2023/02/21 11:56:35;;;;;;;9.68;6.05;;;10.50;81.70;;;;;;5009107;28;20068;-61
2023/02/21 11:59:12;;;;;;;12.15;6.80;;;10.50;81.70;;;;;;5010352;28;20071;-62
2023/02/21 12:01:47;;;;;;;12.30;6.30;;;10.60;81.60;;;;;;4999543;28;20060;-61
2023/02/21 12:04:36;;;;;;;10.90;6.55;;;10.60;81.40;;;;;;5007861;28;20137;-61
2023/02/21 12:07:12;;;;;;;11.50;6.53;;;10.70;81.30;;;;;;5008012;28;20050;-63
2023/02/21 12:09:44;;;;;;;10.07;6.35;;;10.70;81.30;;;;;;5006360;28;20065;-64
2023/02/21 12:12:35;;;;;;;12.55;6.75;;;10.70;81.10;;;;;;5007485;28;20053;-64
2023/02/21 12:15:21;;;;;;;14.73;7.00;;;10.80;81.10;;;;;;5009334;28;20042;-63
2023/02/21 12:18:24;;;;;;;11.82;6.40;;;10.90;81.10;;;;;;5007962;28;20057;-63
2023/02/21 12:21:13;;;;;;;12.75;6.50;;;10.90;80.80;;;;;;5008009;28;20069;-64
2023/02/21 12:23:50;;;;;;;11.52;6.35;;;11.00;80.90;;;;;;5008674;28;20057;-62
2023/02/21 12:26:36;;;;;;;14.23;6.65;;;11.00;80.70;;;;;;5010805;28;20060;-63
2023/02/21 12:29:16;;;;;;;11.00;6.38;;;11.10;80.80;;;;;;5009980;28;20074;-70
2023/02/21 12:32:01;;;;;;;11.95;6.50;;;11.10;80.60;;;;;;5008951;28;20082;-68
2023/02/21 12:34:46;;;;;;;13.25;6.60;;;11.20;80.60;;;;;;5007276;28;20116;-62
2023/02/21 12:37:21;;;;;;;11.85;6.03;;;11.20;80.80;;;;;;5007432;28;20053;-60
2023/02/21 12:40:07;;;;;;;14.05;6.65;;;11.20;80.60;;;;;;5004988;28;20049;-60
2023/02/21 12:42:53;;;;;;;10.80;6.15;;;11.30;80.60;;;;;;5013886;28;20058;-63
2023/02/21 12:45:43;;;;;;;11.82;6.28;;;11.40;80.50;;;;;;5009138;28;20050;-64
2023/02/21 12:48:16;;;;;;;12.13;5.75;;;11.40;80.50;;;;;;5005659;28;20064;-64
2023/02/21 12:50:46;;;;;;;10.38;6.15;;;11.40;80.30;;;;;;5008559;28;20049;-62
2023/02/21 12:53:18;;;;;;;9.60;5.80;;;11.50;80.30;;;;;;5006841;28;20039;-63
2023/02/21 12:55:51;;;;;;;11.38;6.45;;;11.50;80.00;;;;;;5007215;28;20077;-65
2023/02/21 12:58:25;;;;;;;10.98;5.72;;;11.60;80.20;;;;;;5009628;28;20042;-64
2023/02/21 13:00:58;;;;;;;10.88;6.03;;;11.60;80.20;;;;;;4999966;28;20052;-64
2023/02/21 13:03:39;;;;;;;9.15;5.57;;;11.60;80.10;;;;;;5005980;28;20500;-64
2023/02/21 13:06:15;;;;;;;11.13;5.45;;;11.70;80.30;;;;;;4999546;28;20139;-69
2023/02/21 13:08:54;;;;;;;10.43;5.25;;;11.70;80.20;;;;;;5007148;28;20084;-69
2023/02/21 13:11:25;;;;;;;9.82;5.32;;;11.70;80.10;;;;;;5004953;28;20132;-70
2023/02/21 13:13:52;;;;;;;10.88;5.22;;;11.70;80.20;;;;;;5006484;28;20157;-61
2023/02/21 13:16:21;;;;;;;10.90;5.60;;;11.70;80.30;;;;;;5008129;28;20397;-62
2023/02/21 13:18:58;;;;;;;10.80;5.50;;;11.70;80.30;;;;;;4988792;28;20045;-62
2023/02/21 13:21:37;;;;;;;10.32;5.68;;;11.70;80.40;;;;;;5006941;28;20053;-61
2023/02/21 13:24:14;;;;;;;9.60;5.38;;;11.70;80.50;;;;;;5008679;28;20143;-63
2023/02/21 13:27:00;;;;;;;9.88;5.28;;;11.70;80.40;;;;;;5008691;28;20066;-64
2023/02/21 13:29:30;;;;;;;8.27;4.88;;;11.70;80.50;;;;;;4998222;28;20049;-64
2023/02/21 13:32:02;;;;;;;10.27;5.60;;;11.70;80.40;;;;;;5004514;28;20054;-64
2023/02/21 13:34:36;;;;;;;10.30;5.30;;;11.70;80.40;;;;;;5006863;28;20133;-64
2023/02/21 13:37:06;;;;;;;8.00;4.43;;;11.80;80.40;;;;;;5005723;28;20492;-63
2023/02/21 13:39:36;;;;;;;8.00;4.80;;;11.70;80.30;;;;;;5002955;28;20125;-63
2023/02/21 13:42:07;;;;;;;9.18;4.75;;;11.80;80.40;;;;;;5007390;28;20049;-63
2023/02/21 13:44:38;;;;;;;10.73;5.35;;;11.80;80.40;;;;;;5006965;28;20050;-64
2023/02/21 13:47:11;;;;;;;9.13;4.25;;;11.80;80.60;;;;;;5006289;28;20049;-63
2023/02/21 13:49:46;;;;;;;9.20;4.30;;;11.90;80.60;;;;;;5007642;28;20057;-63
2023/02/21 13:52:25;;;;;;;9.55;4.60;;;11.90;80.90;;;;;;5008161;28;20051;-64
2023/02/21 13:55:30;;;;;;;9.63;4.55;;;11.90;80.80;;;;;;5007860;28;20050;-63
2023/02/21 13:58:32;;;;;;;10.80;4.68;;;11.90;80.80;;;;;;4921256;29;20499;-63
2023/02/21 14:01:51;;;;;;;7.38;4.40;;;12.00;80.50;;;;;;4917152;29;20076;-63
2023/02/21 14:04:59;;;;;;;9.32;4.57;;;12.00;80.50;;;;;;4985778;28;20171;-64
2023/02/21 14:08:00;;;;;;;9.38;4.80;;;12.10;80.60;;;;;;4985585;28;20548;-65
2023/02/21 14:10:33;;;;;;;9.32;4.22;;;12.10;80.40;;;;;;4985823;28;20038;-63
2023/02/21 14:13:04;;;;;;;8.50;4.20;;;12.20;80.40;;;;;;4987334;28;20064;-64
2023/02/21 14:15:45;;;;;;;10.13;4.45;;;12.10;80.40;;;;;;4985901;28;20057;-64
2023/02/21 14:18:24;;;;;;;8.70;4.93;;;12.20;80.60;;;;;;4987504;28;20512;-64
2023/02/21 14:20:55;;;;;;;7.65;3.97;;;12.20;80.70;;;;;;4988355;28;20471;-65
2023/02/21 14:23:25;;;;;;;9.00;3.70;;;12.20;80.90;;;;;;4987713;28;20046;-65
2023/02/21 14:25:58;;;;;;;8.07;3.40;;;12.20;80.90;;;;;;4986968;28;20046;-63
2023/02/21 14:28:59;;;;;;;6.75;3.35;;;12.20;81.00;;;;;;4986548;28;20465;-64
2023/02/21 14:31:49;;;;;;;8.73;3.45;;;12.20;81.00;;;;;;4988068;28;20069;-63
2023/02/21 14:34:22;;;;;;;6.70;3.15;;;12.10;81.00;;;;;;4985417;28;20050;-64
2023/02/21 14:36:52;;;;;;;6.95;3.22;;;12.10;81.30;;;;;;4985878;28;20053;-63
2023/02/21 14:39:19;;;;;;;5.03;2.47;;;12.20;81.30;;;;;;4986554;28;20050;-64
2023/02/21 14:42:01;;;;;;;5.00;2.25;;;12.20;81.40;;;;;;4987222;28;20052;-64
2023/02/21 14:44:37;;;;;;;5.65;2.53;;;12.20;81.20;;;;;;4983478;28;20042;-65
2023/02/21 14:47:45;;;;;;;4.45;2.13;;;12.20;81.10;;;;;;4986908;28;20589;-64
2023/02/21 14:50:31;;;;;;;5.50;2.40;;;12.20;81.20;;;;;;4946570;28;20084;-65
2023/02/21 14:53:27;;;;;;;5.53;2.30;;;12.20;81.30;;;;;;4946142;28;20135;-64
2023/02/21 14:56:24;;;;;;;5.13;2.30;;;12.20;81.50;;;;;;4978963;28;20050;-64
2023/02/21 14:59:15;;;;;;;5.63;2.17;;;12.20;81.60;;;;;;4984227;28;20145;-63
2023/02/21 15:01:54;;;;;;;4.85;2.25;;;12.20;81.70;;;;;;4980867;28;20054;-65
2023/02/21 15:04:34;;;;;;;4.15;2.00;;;12.20;81.60;;;;;;4986266;28;20073;-63
2023/02/21 15:07:14;;;;;;;4.88;1.88;;;12.20;81.70;;;;;;4986359;28;20133;-64
2023/02/21 15:09:43;;;;;;;4.13;2.00;;;12.20;81.70;;;;;;4985582;28;20045;-63
2023/02/21 15:12:17;;;;;;;3.65;1.90;;;12.20;81.90;;;;;;4986356;28;20058;-64
2023/02/21 15:14:49;;;;;;;5.82;1.90;;;12.10;82.00;;;;;;4987009;28;20111;-64
2023/02/21 15:17:20;;;;;;;4.88;2.58;;;12.10;82.10;;;;;;4987606;28;20054;-64
2023/02/21 15:19:47;;;;;;;5.13;2.20;;;12.10;81.90;;;;;;4987277;28;20069;-64
2023/02/21 15:22:22;;;;;;;3.95;1.63;;;12.10;81.90;;;;;;4987628;28;20038;-64
2023/02/21 15:25:19;;;;;;;4.82;1.90;;;12.10;81.90;;;;;;4979891;28;23005;-66
2023/02/21 15:27:55;;;;;;;4.40;1.92;;;12.10;82.10;;;;;;4984575;28;20054;-64
2023/02/21 15:30:24;;;;;;;4.30;1.73;;;12.10;81.90;;;;;;4981839;28;20042;-64
2023/02/21 15:32:58;;;;;;;3.65;1.70;;;12.10;82.20;;;;;;4984627;28;20077;-63
2023/02/21 15:35:32;;;;;;;4.55;2.00;;;12.10;82.20;;;;;;4983606;28;20064;-64